sensor_id;sensor_type;location;lat;lon;timestamp;pressure;altitude;pressure_sealevel;temperature;humidity
55468;BME280;41332;42.702;23.200;2023-05-29T00:00:31;93770.00;;;12.16;84.17
55468;BME280;41332;42.702;23.200;2023-05-29T00:02:57;93765.50;;;12.17;84.17
55468;BME280;41332;42.702;23.200;2023-05-29T00:05:22;93763.88;;;12.12;84.01
55468;BME280;41332;42.702;23.200;2023-05-29T00:07:47;93764.13;;;12.07;84.48
55468;BME280;41332;42.702;23.200;2023-05-29T00:10:14;93772.34;;;12.06;84.30
55468;BME280;41332;42.702;23.200;2023-05-29T00:12:40;93767.34;;;12.00;84.09
55468;BME280;41332;42.702;23.200;2023-05-29T00:15:09;93771.50;;;12.01;84.27
55468;BME280;41332;42.702;23.200;2023-05-29T00:17:37;93777.75;;;11.97;84.06
55468;BME280;41332;42.702;23.200;2023-05-29T00:20:05;93774.38;;;11.96;84.43
55468;BME280;41332;42.702;23.200;2023-05-29T00:22:39;93778.41;;;11.94;84.45
55468;BME280;41332;42.702;23.200;2023-05-29T00:25:05;93776.25;;;11.83;84.87
55468;BME280;41332;42.702;23.200;2023-05-29T00:27:31;93776.94;;;11.80;85.24
55468;BME280;41332;42.702;23.200;2023-05-29T00:29:58;93767.50;;;11.79;85.41
55468;BME280;41332;42.702;23.200;2023-05-29T00:32:23;93772.53;;;11.84;85.30
55468;BME280;41332;42.702;23.200;2023-05-29T00:34:49;93772.78;;;11.79;85.34
55468;BME280;41332;42.702;23.200;2023-05-29T00:37:15;93769.81;;;11.81;85.64
55468;BME280;41332;42.702;23.200;2023-05-29T00:39:40;93769.13;;;11.84;85.64
55468;BME280;41332;42.702;23.200;2023-05-29T00:42:06;93765.72;;;11.83;85.78
55468;BME280;41332;42.702;23.200;2023-05-29T00:44:31;93770.03;;;11.76;86.76
55468;BME280;41332;42.702;23.200;2023-05-29T00:46:57;93769.69;;;11.77;86.50
55468;BME280;41332;42.702;23.200;2023-05-29T00:49:23;93768.59;;;11.78;87.08
55468;BME280;41332;42.702;23.200;2023-05-29T00:51:51;93760.38;;;11.80;87.15
55468;BME280;41332;42.702;23.200;2023-05-29T00:54:17;93767.16;;;11.81;86.52
55468;BME280;41332;42.702;23.200;2023-05-29T00:56:45;93755.78;;;11.77;86.67
55468;BME280;41332;42.702;23.200;2023-05-29T00:59:11;93759.50;;;11.76;86.60
55468;BME280;41332;42.702;23.200;2023-05-29T01:01:38;93761.38;;;11.75;87.97
55468;BME280;41332;42.702;23.200;2023-05-29T01:04:05;93758.22;;;11.69;87.54
55468;BME280;41332;42.702;23.200;2023-05-29T01:06:32;93756.50;;;11.61;87.98
55468;BME280;41332;42.702;23.200;2023-05-29T01:08:57;93752.00;;;11.62;88.23
55468;BME280;41332;42.702;23.200;2023-05-29T01:11:32;93752.34;;;11.60;88.39
55468;BME280;41332;42.702;23.200;2023-05-29T01:14:02;93746.31;;;11.60;88.00
55468;BME280;41332;42.702;23.200;2023-05-29T01:16:47;93751.34;;;11.65;87.77
55468;BME280;41332;42.702;23.200;2023-05-29T01:25:35;93770.31;;;11.58;87.60
55468;BME280;41332;42.702;23.200;2023-05-29T01:28:09;93764.63;;;11.56;87.23
55468;BME280;41332;42.702;23.200;2023-05-29T01:30:37;93766.81;;;11.54;87.90
55468;BME280;41332;42.702;23.200;2023-05-29T01:33:03;93768.59;;;11.50;88.16
55468;BME280;41332;42.702;23.200;2023-05-29T01:35:29;93769.03;;;11.52;88.72
55468;BME280;41332;42.702;23.200;2023-05-29T01:37:55;93768.47;;;11.59;89.03
55468;BME280;41332;42.702;23.200;2023-05-29T01:40:20;93769.31;;;11.63;88.25
55468;BME280;41332;42.702;23.200;2023-05-29T01:42:45;93760.97;;;11.61;88.18
55468;BME280;41332;42.702;23.200;2023-05-29T01:45:12;93761.09;;;11.64;88.54
55468;BME280;41332;42.702;23.200;2023-05-29T01:47:37;93762.63;;;11.65;89.14
55468;BME280;41332;42.702;23.200;2023-05-29T01:50:04;93761.41;;;11.63;89.34
55468;BME280;41332;42.702;23.200;2023-05-29T01:52:30;93755.81;;;11.64;89.49
55468;BME280;41332;42.702;23.200;2023-05-29T01:54:55;93757.88;;;11.71;89.47
55468;BME280;41332;42.702;23.200;2023-05-29T01:57:21;93756.25;;;11.66;90.13
55468;BME280;41332;42.702;23.200;2023-05-29T01:59:47;93755.34;;;11.75;89.75
55468;BME280;41332;42.702;23.200;2023-05-29T02:02:13;93755.34;;;11.75;90.57
55468;BME280;41332;42.702;23.200;2023-05-29T02:04:38;93755.78;;;11.77;90.33
55468;BME280;41332;42.702;23.200;2023-05-29T02:07:04;93749.94;;;11.83;90.13
55468;BME280;41332;42.702;23.200;2023-05-29T02:09:30;93749.94;;;11.83;90.06
55468;BME280;41332;42.702;23.200;2023-05-29T02:11:56;93748.59;;;11.90;90.37
55468;BME280;41332;42.702;23.200;2023-05-29T02:14:21;93750.13;;;11.91;90.45
55468;BME280;41332;42.702;23.200;2023-05-29T02:16:49;93748.38;;;11.95;90.31
55468;BME280;41332;42.702;23.200;2023-05-29T02:19:17;93744.75;;;11.99;89.86
55468;BME280;41332;42.702;23.200;2023-05-29T02:21:43;93743.31;;;12.02;89.67
55468;BME280;41332;42.702;23.200;2023-05-29T02:24:08;93742.19;;;12.03;89.84
55468;BME280;41332;42.702;23.200;2023-05-29T02:26:34;93746.72;;;12.02;90.02
55468;BME280;41332;42.702;23.200;2023-05-29T02:29:01;93738.47;;;12.04;89.95
55468;BME280;41332;42.702;23.200;2023-05-29T02:31:27;93739.13;;;12.01;89.76
55468;BME280;41332;42.702;23.200;2023-05-29T02:33:52;93741.22;;;12.08;89.65
55468;BME280;41332;42.702;23.200;2023-05-29T02:36:17;93741.97;;;12.08;89.07
55468;BME280;41332;42.702;23.200;2023-05-29T02:38:43;93750.84;;;12.03;88.94
55468;BME280;41332;42.702;23.200;2023-05-29T02:41:08;93751.53;;;12.00;89.34
55468;BME280;41332;42.702;23.200;2023-05-29T02:43:33;93750.84;;;12.03;89.53
55468;BME280;41332;42.702;23.200;2023-05-29T02:45:59;93758.44;;;12.05;88.99
55468;BME280;41332;42.702;23.200;2023-05-29T02:48:24;93748.81;;;11.97;88.38
55468;BME280;41332;42.702;23.200;2023-05-29T02:50:51;93749.47;;;11.94;88.83
55468;BME280;41332;42.702;23.200;2023-05-29T02:53:16;93746.63;;;11.99;88.12
55468;BME280;41332;42.702;23.200;2023-05-29T02:55:42;93749.47;;;11.94;88.41
55468;BME280;41332;42.702;23.200;2023-05-29T02:58:07;93746.72;;;11.90;88.54
55468;BME280;41332;42.702;23.200;2023-05-29T03:00:33;93742.66;;;11.93;88.65
55468;BME280;41332;42.702;23.200;2023-05-29T03:02:58;93751.31;;;11.93;88.17
55468;BME280;41332;42.702;23.200;2023-05-29T03:05:24;93754.28;;;11.92;88.10
55468;BME280;41332;42.702;23.200;2023-05-29T03:07:50;93742.56;;;11.89;88.99
55468;BME280;41332;42.702;23.200;2023-05-29T03:10:16;93745.63;;;11.91;89.09
55468;BME280;41332;42.702;23.200;2023-05-29T03:12:42;93749.81;;;11.92;88.68
55468;BME280;41332;42.702;23.200;2023-05-29T03:15:09;93742.91;;;11.87;89.00
55468;BME280;41332;42.702;23.200;2023-05-29T03:17:34;93754.28;;;11.92;89.36
55468;BME280;41332;42.702;23.200;2023-05-29T03:20:02;93754.28;;;11.92;89.84
55468;BME280;41332;42.702;23.200;2023-05-29T03:22:31;93752.00;;;11.90;89.98
55468;BME280;41332;42.702;23.200;2023-05-29T03:24:56;93752.09;;;11.94;90.48
55468;BME280;41332;42.702;23.200;2023-05-29T03:27:21;93754.41;;;11.95;90.55
55468;BME280;41332;42.702;23.200;2023-05-29T03:29:47;93752.97;;;11.98;90.67
55468;BME280;41332;42.702;23.200;2023-05-29T03:32:12;93753.84;;;12.02;90.77
55468;BME280;41332;42.702;23.200;2023-05-29T03:34:38;93754.69;;;12.06;90.54
55468;BME280;41332;42.702;23.200;2023-05-29T03:37:05;93751.41;;;12.09;90.17
55468;BME280;41332;42.702;23.200;2023-05-29T03:39:30;93762.34;;;12.11;90.47
55468;BME280;41332;42.702;23.200;2023-05-29T03:41:56;93761.78;;;12.18;90.08
55468;BME280;41332;42.702;23.200;2023-05-29T03:44:21;93770.00;;;12.16;90.08
55468;BME280;41332;42.702;23.200;2023-05-29T03:46:46;93773.81;;;12.19;90.04
55468;BME280;41332;42.702;23.200;2023-05-29T03:49:12;93773.16;;;12.22;89.60
55468;BME280;41332;42.702;23.200;2023-05-29T03:51:37;93775.00;;;12.22;89.92
55468;BME280;41332;42.702;23.200;2023-05-29T03:54:03;93776.19;;;12.24;90.02
55468;BME280;41332;42.702;23.200;2023-05-29T03:56:29;93779.97;;;12.23;89.88
55468;BME280;41332;42.702;23.200;2023-05-29T03:58:54;93782.41;;;12.32;90.64
55468;BME280;41332;42.702;23.200;2023-05-29T04:01:20;93798.22;;;12.32;90.61
55468;BME280;41332;42.702;23.200;2023-05-29T04:03:45;93791.59;;;12.38;91.11
55468;BME280;41332;42.702;23.200;2023-05-29T04:06:11;93797.06;;;12.45;90.59
55468;BME280;41332;42.702;23.200;2023-05-29T04:08:36;93793.09;;;12.51;90.59
55468;BME280;41332;42.702;23.200;2023-05-29T04:11:02;93798.75;;;12.53;91.17
55468;BME280;41332;42.702;23.200;2023-05-29T04:13:28;93799.00;;;12.48;93.35
55468;BME280;41332;42.702;23.200;2023-05-29T04:15:54;93806.91;;;12.64;93.16
55468;BME280;41332;42.702;23.200;2023-05-29T04:18:20;93803.97;;;12.66;92.71
55468;BME280;41332;42.702;23.200;2023-05-29T04:20:46;93808.69;;;12.60;92.45
55468;BME280;41332;42.702;23.200;2023-05-29T04:23:12;93802.59;;;12.56;92.36
55468;BME280;41332;42.702;23.200;2023-05-29T04:25:38;93814.56;;;12.53;92.51
55468;BME280;41332;42.702;23.200;2023-05-29T04:28:03;93810.59;;;12.60;92.18
55468;BME280;41332;42.702;23.200;2023-05-29T04:30:29;93803.88;;;12.62;92.55
55468;BME280;41332;42.702;23.200;2023-05-29T04:32:54;93802.00;;;12.63;92.13
55468;BME280;41332;42.702;23.200;2023-05-29T04:35:20;93801.06;;;12.71;92.46
55468;BME280;41332;42.702;23.200;2023-05-29T04:37:47;93799.63;;;12.74;92.61
55468;BME280;41332;42.702;23.200;2023-05-29T04:40:12;93803.19;;;12.81;93.16
55468;BME280;41332;42.702;23.200;2023-05-29T04:42:42;93798.91;;;12.93;92.82
55468;BME280;41332;42.702;23.200;2023-05-29T04:45:10;93808.03;;;12.95;92.03
55468;BME280;41332;42.702;23.200;2023-05-29T04:47:38;93810.00;;;12.98;90.98
55468;BME280;41332;42.702;23.200;2023-05-29T04:50:13;93805.75;;;13.10;90.87
55468;BME280;41332;42.702;23.200;2023-05-29T04:52:39;93809.69;;;13.19;91.21
55468;BME280;41332;42.702;23.200;2023-05-29T04:55:05;93821.94;;;13.28;91.09
55468;BME280;41332;42.702;23.200;2023-05-29T04:57:31;93812.91;;;13.29;90.49
55468;BME280;41332;42.702;23.200;2023-05-29T04:59:56;93807.50;;;13.22;90.68
55468;BME280;41332;42.702;23.200;2023-05-29T05:02:21;93820.00;;;13.25;91.01
55468;BME280;41332;42.702;23.200;2023-05-29T05:04:47;93829.34;;;13.22;91.28
55468;BME280;41332;42.702;23.200;2023-05-29T05:07:13;93840.16;;;13.17;91.10
55468;BME280;41332;42.702;23.200;2023-05-29T05:09:41;93838.13;;;13.10;91.25
55468;BME280;41332;42.702;23.200;2023-05-29T05:12:07;93834.75;;;13.10;91.15
55468;BME280;41332;42.702;23.200;2023-05-29T05:14:32;93843.91;;;13.16;91.11
55468;BME280;41332;42.702;23.200;2023-05-29T05:16:57;93847.81;;;13.22;90.93
55468;BME280;41332;42.702;23.200;2023-05-29T05:19:23;93844.66;;;13.32;90.39
55468;BME280;41332;42.702;23.200;2023-05-29T05:21:48;93848.03;;;13.33;89.97
55468;BME280;41332;42.702;23.200;2023-05-29T05:24:14;93852.91;;;13.47;89.82
55468;BME280;41332;42.702;23.200;2023-05-29T05:26:39;93855.63;;;13.50;89.30
55468;BME280;41332;42.702;23.200;2023-05-29T05:29:05;93856.47;;;13.55;88.88
55468;BME280;41332;42.702;23.200;2023-05-29T05:31:30;93848.97;;;13.57;88.79
55468;BME280;41332;42.702;23.200;2023-05-29T05:33:55;93855.00;;;13.57;89.30
55468;BME280;41332;42.702;23.200;2023-05-29T05:36:21;93854.75;;;13.62;89.04
55468;BME280;41332;42.702;23.200;2023-05-29T05:38:49;93848.38;;;13.63;89.27
55468;BME280;41332;42.702;23.200;2023-05-29T05:41:15;93849.19;;;13.67;89.60
55468;BME280;41332;42.702;23.200;2023-05-29T05:43:40;93855.75;;;13.74;88.92
55468;BME280;41332;42.702;23.200;2023-05-29T05:46:05;93851.56;;;13.73;89.24
55468;BME280;41332;42.702;23.200;2023-05-29T05:48:31;93858.38;;;13.74;89.03
55468;BME280;41332;42.702;23.200;2023-05-29T05:50:56;93854.41;;;13.64;88.92
55468;BME280;41332;42.702;23.200;2023-05-29T05:53:21;93857.72;;;13.61;88.45
55468;BME280;41332;42.702;23.200;2023-05-29T05:55:47;93860.28;;;13.57;88.19
55468;BME280;41332;42.702;23.200;2023-05-29T05:58:12;93863.28;;;13.56;88.62
55468;BME280;41332;42.702;23.200;2023-05-29T06:00:39;93867.94;;;13.62;88.50
55468;BME280;41332;42.702;23.200;2023-05-29T06:03:05;93864.38;;;13.71;88.25
55468;BME280;41332;42.702;23.200;2023-05-29T06:05:30;93861.78;;;13.74;87.44
55468;BME280;41332;42.702;23.200;2023-05-29T06:07:56;93859.38;;;13.85;87.53
55468;BME280;41332;42.702;23.200;2023-05-29T06:10:21;93854.59;;;14.10;86.83
55468;BME280;41332;42.702;23.200;2023-05-29T06:12:47;93848.53;;;14.29;86.55
55468;BME280;41332;42.702;23.200;2023-05-29T06:15:12;93848.84;;;14.67;86.92
55468;BME280;41332;42.702;23.200;2023-05-29T06:17:37;93859.97;;;14.76;83.86
55468;BME280;41332;42.702;23.200;2023-05-29T06:20:03;93857.25;;;14.73;83.09
55468;BME280;41332;42.702;23.200;2023-05-29T06:22:39;93864.38;;;14.92;83.56
55468;BME280;41332;42.702;23.200;2023-05-29T06:25:04;93868.91;;;15.14;82.22
55468;BME280;41332;42.702;23.200;2023-05-29T06:27:30;93864.53;;;15.26;82.90
55468;BME280;41332;42.702;23.200;2023-05-29T06:29:55;93860.16;;;15.37;82.29
55468;BME280;41332;42.702;23.200;2023-05-29T06:32:21;93868.66;;;15.23;80.18
55468;BME280;41332;42.702;23.200;2023-05-29T06:34:47;93874.59;;;15.16;80.80
55468;BME280;41332;42.702;23.200;2023-05-29T06:37:12;93865.69;;;15.02;81.04
55468;BME280;41332;42.702;23.200;2023-05-29T06:39:38;93872.84;;;15.01;81.47
55468;BME280;41332;42.702;23.200;2023-05-29T06:42:07;93873.25;;;15.03;81.97
55468;BME280;41332;42.702;23.200;2023-05-29T06:44:32;93867.44;;;15.17;82.36
55468;BME280;41332;42.702;23.200;2023-05-29T06:46:58;93874.28;;;15.22;81.83
55468;BME280;41332;42.702;23.200;2023-05-29T06:49:23;93869.50;;;15.27;82.02
55468;BME280;41332;42.702;23.200;2023-05-29T06:51:48;93870.75;;;15.37;83.06
55468;BME280;41332;42.702;23.200;2023-05-29T06:54:14;93867.88;;;15.46;82.65
55468;BME280;41332;42.702;23.200;2023-05-29T06:56:39;93875.50;;;15.51;81.37
55468;BME280;41332;42.702;23.200;2023-05-29T06:59:05;93883.13;;;15.56;81.02
55468;BME280;41332;42.702;23.200;2023-05-29T07:01:30;93872.66;;;15.63;80.82
55468;BME280;41332;42.702;23.200;2023-05-29T07:03:55;93874.38;;;15.79;80.62
55468;BME280;41332;42.702;23.200;2023-05-29T07:06:21;93874.81;;;15.81;79.79
55468;BME280;41332;42.702;23.200;2023-05-29T07:08:46;93872.44;;;16.03;79.33
55468;BME280;41332;42.702;23.200;2023-05-29T07:11:12;93869.75;;;16.33;79.04
55468;BME280;41332;42.702;23.200;2023-05-29T07:13:37;93868.94;;;16.63;78.62
55468;BME280;41332;42.702;23.200;2023-05-29T07:16:03;93880.81;;;16.76;77.44
55468;BME280;41332;42.702;23.200;2023-05-29T07:18:28;93873.03;;;16.91;74.90
55468;BME280;41332;42.702;23.200;2023-05-29T07:20:56;93872.31;;;16.97;76.60
55468;BME280;41332;42.702;23.200;2023-05-29T07:23:21;93877.66;;;17.01;75.64
55468;BME280;41332;42.702;23.200;2023-05-29T07:25:47;93872.09;;;17.13;74.73
55468;BME280;41332;42.702;23.200;2023-05-29T07:28:12;93880.16;;;17.28;73.37
55468;BME280;41332;42.702;23.200;2023-05-29T07:30:37;93873.25;;;17.16;72.58
55468;BME280;41332;42.702;23.200;2023-05-29T07:33:03;93873.63;;;17.18;73.97
55468;BME280;41332;42.702;23.200;2023-05-29T07:35:28;93874.13;;;17.31;72.88
55468;BME280;41332;42.702;23.200;2023-05-29T07:37:54;93869.94;;;17.30;72.01
55468;BME280;41332;42.702;23.200;2023-05-29T07:40:19;93866.13;;;17.27;72.80
55468;BME280;41332;42.702;23.200;2023-05-29T07:42:45;93867.25;;;17.23;72.54
55468;BME280;41332;42.702;23.200;2023-05-29T07:45:10;93862.72;;;17.27;72.52
55468;BME280;41332;42.702;23.200;2023-05-29T07:47:36;93877.19;;;17.33;72.15
55468;BME280;41332;42.702;23.200;2023-05-29T07:50:01;93869.81;;;17.16;73.27
55468;BME280;41332;42.702;23.200;2023-05-29T07:52:27;93872.53;;;17.23;71.73
55468;BME280;41332;42.702;23.200;2023-05-29T07:54:52;93868.41;;;17.25;71.76
55468;BME280;41332;42.702;23.200;2023-05-29T07:57:18;93861.56;;;17.24;70.93
55468;BME280;41332;42.702;23.200;2023-05-29T07:59:43;93873.38;;;17.34;70.29
55468;BME280;41332;42.702;23.200;2023-05-29T08:02:09;93869.38;;;17.58;69.95
55468;BME280;41332;42.702;23.200;2023-05-29T08:04:35;93863.47;;;17.87;70.66
55468;BME280;41332;42.702;23.200;2023-05-29T08:07:02;93870.44;;;18.06;70.28
55468;BME280;41332;42.702;23.200;2023-05-29T08:09:29;93860.25;;;18.22;69.23
55468;BME280;41332;42.702;23.200;2023-05-29T08:11:54;93861.03;;;18.26;69.25
55468;BME280;41332;42.702;23.200;2023-05-29T08:14:20;93860.63;;;18.24;68.09
55468;BME280;41332;42.702;23.200;2023-05-29T08:16:48;93863.34;;;18.39;66.65
55468;BME280;41332;42.702;23.200;2023-05-29T08:19:14;93859.59;;;18.58;67.02
55468;BME280;41332;42.702;23.200;2023-05-29T08:21:39;93865.34;;;18.82;65.16
55468;BME280;41332;42.702;23.200;2023-05-29T08:24:05;93866.03;;;18.53;65.12
55468;BME280;41332;42.702;23.200;2023-05-29T08:26:31;93862.97;;;18.37;65.82
55468;BME280;41332;42.702;23.200;2023-05-29T08:28:57;93864.44;;;18.27;66.85
55468;BME280;41332;42.702;23.200;2023-05-29T08:31:22;93884.47;;;17.47;67.25
55468;BME280;41332;42.702;23.200;2023-05-29T08:33:51;93873.63;;;17.67;68.07
55468;BME280;41332;42.702;23.200;2023-05-29T08:36:17;93876.28;;;17.67;69.20
55468;BME280;41332;42.702;23.200;2023-05-29T08:38:43;93880.78;;;17.59;68.29
55468;BME280;41332;42.702;23.200;2023-05-29T08:41:12;93879.28;;;17.61;67.75
55468;BME280;41332;42.702;23.200;2023-05-29T08:43:41;93875.22;;;17.82;67.61
55468;BME280;41332;42.702;23.200;2023-05-29T08:46:07;93870.31;;;17.88;66.90
55468;BME280;41332;42.702;23.200;2023-05-29T08:48:35;93868.16;;;18.08;67.14
55468;BME280;41332;42.702;23.200;2023-05-29T08:51:03;93861.31;;;18.10;66.96
55468;BME280;41332;42.702;23.200;2023-05-29T08:53:29;93865.50;;;18.08;65.66
55468;BME280;41332;42.702;23.200;2023-05-29T08:55:57;93864.34;;;18.02;66.38
55468;BME280;41332;42.702;23.200;2023-05-29T08:58:23;93860.56;;;18.06;65.98
55468;BME280;41332;42.702;23.200;2023-05-29T09:00:49;93859.69;;;17.88;66.39
55468;BME280;41332;42.702;23.200;2023-05-29T09:03:16;93860.84;;;17.90;65.35
55468;BME280;41332;42.702;23.200;2023-05-29T09:05:42;93857.88;;;18.03;64.45
55468;BME280;41332;42.702;23.200;2023-05-29T09:08:09;93860.94;;;18.08;63.89
55468;BME280;41332;42.702;23.200;2023-05-29T09:10:40;93850.31;;;18.05;62.69
55468;BME280;41332;42.702;23.200;2023-05-29T09:13:06;93847.59;;;17.98;65.12
55468;BME280;41332;42.702;23.200;2023-05-29T09:15:32;93842.00;;;18.14;63.07
55468;BME280;41332;42.702;23.200;2023-05-29T09:17:58;93834.09;;;18.39;64.72
55468;BME280;41332;42.702;23.200;2023-05-29T09:20:24;93833.38;;;18.53;63.57
55468;BME280;41332;42.702;23.200;2023-05-29T09:22:58;93830.75;;;18.71;62.50
55468;BME280;41332;42.702;23.200;2023-05-29T09:25:26;93839.13;;;18.73;61.03
55468;BME280;41332;42.702;23.200;2023-05-29T09:28:02;93824.31;;;18.86;61.06
55468;BME280;41332;42.702;23.200;2023-05-29T09:32:59;93822.06;;;19.39;60.61
55468;BME280;41332;42.702;23.200;2023-05-29T09:35:25;93819.75;;;19.41;60.23
55468;BME280;41332;42.702;23.200;2023-05-29T09:37:50;93822.03;;;19.42;60.03
55468;BME280;41332;42.702;23.200;2023-05-29T09:40:16;93813.69;;;19.22;57.36
55468;BME280;41332;42.702;23.200;2023-05-29T09:42:41;93810.25;;;19.36;56.76
55468;BME280;41332;42.702;23.200;2023-05-29T09:45:07;93808.69;;;19.57;57.55
55468;BME280;41332;42.702;23.200;2023-05-29T09:47:34;93814.41;;;19.55;57.62
55468;BME280;41332;42.702;23.200;2023-05-29T09:50:00;93805.97;;;19.89;57.22
55468;BME280;41332;42.702;23.200;2023-05-29T09:52:29;93801.66;;;20.14;56.45
55468;BME280;41332;42.702;23.200;2023-05-29T09:54:55;93796.25;;;20.35;54.19
55468;BME280;41332;42.702;23.200;2023-05-29T10:08:30;93791.97;;;20.49;52.57
55468;BME280;41332;42.702;23.200;2023-05-29T10:11:01;93795.84;;;20.40;54.43
55468;BME280;41332;42.702;23.200;2023-05-29T10:13:34;93787.31;;;20.60;53.27
55468;BME280;41332;42.702;23.200;2023-05-29T10:16:03;93791.13;;;20.70;52.83
55468;BME280;41332;42.702;23.200;2023-05-29T10:18:38;93794.59;;;20.56;52.65
55468;BME280;41332;42.702;23.200;2023-05-29T10:21:07;93788.56;;;20.45;53.80
55468;BME280;41332;42.702;23.200;2023-05-29T10:23:33;93783.41;;;20.16;53.29
55468;BME280;41332;42.702;23.200;2023-05-29T10:26:15;93785.25;;;20.22;52.57
55468;BME280;41332;42.702;23.200;2023-05-29T10:28:45;93786.84;;;20.13;54.37
55468;BME280;41332;42.702;23.200;2023-05-29T10:31:20;93793.53;;;20.46;53.42
55468;BME280;41332;42.702;23.200;2023-05-29T10:33:51;93789.97;;;20.67;49.82
55468;BME280;41332;42.702;23.200;2023-05-29T10:36:21;93785.16;;;20.44;52.33
55468;BME280;41332;42.702;23.200;2023-05-29T10:38:50;93784.16;;;20.80;50.90
55468;BME280;41332;42.702;23.200;2023-05-29T10:44:00;93769.22;;;20.93;51.24
55468;BME280;41332;42.702;23.200;2023-05-29T10:49:19;93786.59;;;21.12;51.63
55468;BME280;41332;42.702;23.200;2023-05-29T10:51:45;93777.94;;;20.97;50.62
55468;BME280;41332;42.702;23.200;2023-05-29T10:54:11;93772.88;;;20.57;50.50
55468;BME280;41332;42.702;23.200;2023-05-29T10:56:37;93768.34;;;20.51;48.63
55468;BME280;41332;42.702;23.200;2023-05-29T10:59:02;93763.09;;;20.92;48.50
55468;BME280;41332;42.702;23.200;2023-05-29T11:01:31;93759.56;;;21.06;47.92
55468;BME280;41332;42.702;23.200;2023-05-29T11:06:41;93753.19;;;20.97;48.39
55468;BME280;41332;42.702;23.200;2023-05-29T11:09:35;93745.22;;;20.89;50.70
55468;BME280;41332;42.702;23.200;2023-05-29T11:17:31;93737.03;;;21.11;46.23
55468;BME280;41332;42.702;23.200;2023-05-29T11:20:01;93734.81;;;21.02;46.71
55468;BME280;41332;42.702;23.200;2023-05-29T11:25:10;93739.38;;;20.53;46.34
55468;BME280;41332;42.702;23.200;2023-05-29T11:27:38;93726.66;;;20.68;46.97
55468;BME280;41332;42.702;23.200;2023-05-29T11:30:05;93731.56;;;20.80;47.05
55468;BME280;41332;42.702;23.200;2023-05-29T11:32:33;93726.75;;;20.57;48.89
55468;BME280;41332;42.702;23.200;2023-05-29T11:35:07;93733.63;;;20.58;47.81
55468;BME280;41332;42.702;23.200;2023-05-29T11:37:43;93738.91;;;20.62;47.56
55468;BME280;41332;42.702;23.200;2023-05-29T11:40:12;93734.75;;;20.57;47.97
55468;BME280;41332;42.702;23.200;2023-05-29T11:42:45;93733.22;;;20.59;46.98
55468;BME280;41332;42.702;23.200;2023-05-29T11:45:17;93726.25;;;20.77;47.78
55468;BME280;41332;42.702;23.200;2023-05-29T11:47:52;93728.31;;;21.07;46.29
55468;BME280;41332;42.702;23.200;2023-05-29T11:50:23;93722.28;;;20.96;45.96
55468;BME280;41332;42.702;23.200;2023-05-29T11:52:49;93720.19;;;20.72;47.47
55468;BME280;41332;42.702;23.200;2023-05-29T11:55:14;93729.41;;;20.61;49.67
55468;BME280;41332;42.702;23.200;2023-05-29T11:57:39;93727.50;;;20.57;50.15
55468;BME280;41332;42.702;23.200;2023-05-29T12:00:06;93729.06;;;20.55;51.53
55468;BME280;41332;42.702;23.200;2023-05-29T12:02:32;93719.63;;;20.43;53.11
55468;BME280;41332;42.702;23.200;2023-05-29T12:05:05;93728.81;;;20.38;52.10
55468;BME280;41332;42.702;23.200;2023-05-29T12:07:34;93722.78;;;20.27;52.92
55468;BME280;41332;42.702;23.200;2023-05-29T12:10:12;93714.19;;;20.54;51.10
55468;BME280;41332;42.702;23.200;2023-05-29T12:12:38;93707.59;;;20.69;50.16
55468;BME280;41332;42.702;23.200;2023-05-29T12:15:05;93708.94;;;20.43;51.36
55468;BME280;41332;42.702;23.200;2023-05-29T12:17:32;93717.13;;;20.14;53.71
55468;BME280;41332;42.702;23.200;2023-05-29T12:19:58;93704.63;;;20.07;54.87
55468;BME280;41332;42.702;23.200;2023-05-29T12:22:38;93706.25;;;19.87;54.13
55468;BME280;41332;42.702;23.200;2023-05-29T12:25:07;93713.69;;;20.17;56.64
55468;BME280;41332;42.702;23.200;2023-05-29T12:27:34;93731.44;;;19.60;57.99
55468;BME280;41332;42.702;23.200;2023-05-29T12:30:10;93741.34;;;19.56;60.51
55468;BME280;41332;42.702;23.200;2023-05-29T12:32:39;93740.69;;;18.94;64.45
55468;BME280;41332;42.702;23.200;2023-05-29T12:35:24;93739.91;;;18.72;66.58
55468;BME280;41332;42.702;23.200;2023-05-29T12:38:01;93761.09;;;18.04;71.44
55468;BME280;41332;42.702;23.200;2023-05-29T12:40:28;93764.34;;;17.65;75.32
55468;BME280;41332;42.702;23.200;2023-05-29T12:42:55;93768.41;;;17.44;77.12
55468;BME280;41332;42.702;23.200;2023-05-29T12:45:23;93763.84;;;17.41;76.88
55468;BME280;41332;42.702;23.200;2023-05-29T12:47:54;93768.56;;;17.06;80.69
55468;BME280;41332;42.702;23.200;2023-05-29T12:53:05;93774.31;;;16.67;83.07
55468;BME280;41332;42.702;23.200;2023-05-29T12:55:33;93774.81;;;16.87;81.65
55468;BME280;41332;42.702;23.200;2023-05-29T12:58:02;93770.13;;;17.14;81.99
55468;BME280;41332;42.702;23.200;2023-05-29T13:00:27;93764.28;;;17.50;80.73
55468;BME280;41332;42.702;23.200;2023-05-29T13:02:53;93763.59;;;17.64;78.77
55468;BME280;41332;42.702;23.200;2023-05-29T13:05:18;93767.31;;;17.56;78.27
55468;BME280;41332;42.702;23.200;2023-05-29T13:07:45;93761.63;;;17.57;77.16
55468;BME280;41332;42.702;23.200;2023-05-29T13:10:11;93768.50;;;17.62;73.37
55468;BME280;41332;42.702;23.200;2023-05-29T13:12:36;93762.38;;;17.51;75.16
55468;BME280;41332;42.702;23.200;2023-05-29T13:15:02;93761.78;;;17.86;74.32
55468;BME280;41332;42.702;23.200;2023-05-29T13:17:27;93758.78;;;17.99;68.11
55468;BME280;41332;42.702;23.200;2023-05-29T13:19:53;93766.03;;;18.09;69.32
55468;BME280;41332;42.702;23.200;2023-05-29T13:22:18;93764.56;;;18.26;69.39
55468;BME280;41332;42.702;23.200;2023-05-29T13:24:45;93765.28;;;18.08;68.31
55468;BME280;41332;42.702;23.200;2023-05-29T13:27:10;93767.97;;;18.12;68.34